Time;durP1;ratioP1;P1;durP2;ratioP2;P2;SDS_P1;SDS_P2;PMS_P1;PMS_P2;Temp;Humidity;BMP_temperature;BMP_pressure;BME280_temperature;BME280_humidity;BME280_pressure;Samples;Min_cycle;Max_cycle;Signal;HPM_P1;HPM_P2
2022/08/07 00:00:07;;;;;;;2.40;1.23;;;21.90;99.90;;;;;;6143808;23;20084;-68
2022/08/07 00:02:33;;;;;;;1.40;1.30;;;21.90;99.90;;;;;;6144298;23;20495;-68
2022/08/07 00:04:58;;;;;;;1.55;1.42;;;21.90;99.90;;;;;;6143478;23;20024;-68
2022/08/07 00:07:24;;;;;;;1.50;1.40;;;22.00;99.90;;;;;;6145115;23;20009;-69
2022/08/07 00:09:50;;;;;;;1.67;1.40;;;21.90;99.90;;;;;;6144861;23;20005;-68
2022/08/07 00:12:15;;;;;;;1.63;1.48;;;22.00;99.90;;;;;;6143528;23;20316;-68
2022/08/07 00:14:41;;;;;;;2.53;1.50;;;21.90;99.90;;;;;;6144291;23;20005;-68
2022/08/07 00:17:06;;;;;;;1.30;1.20;;;21.90;99.90;;;;;;6145005;23;20005;-68
2022/08/07 00:19:32;;;;;;;1.50;1.40;;;21.90;99.90;;;;;;6145288;23;20457;-68
2022/08/07 00:21:58;;;;;;;1.50;1.40;;;21.90;99.90;;;;;;6142667;23;20406;-69
2022/08/07 00:24:23;;;;;;;2.00;1.50;;;21.90;99.90;;;;;;6144346;23;20066;-68
2022/08/07 00:26:51;;;;;;;2.40;1.45;;;21.90;99.90;;;;;;6141272;23;20044;-68
2022/08/07 00:29:18;;;;;;;2.03;1.48;;;21.90;99.90;;;;;;6145081;23;20001;-68
2022/08/07 00:31:43;;;;;;;1.20;1.15;;;21.90;99.90;;;;;;6145596;23;20093;-68
2022/08/07 00:34:09;;;;;;;1.67;1.42;;;21.90;99.90;;;;;;6143760;23;20025;-68
2022/08/07 00:36:36;;;;;;;1.85;1.40;;;21.90;99.90;;;;;;6143948;23;20029;-68
2022/08/07 00:39:02;;;;;;;1.95;1.77;;;21.90;99.90;;;;;;6141914;23;20057;-68
2022/08/07 00:41:31;;;;;;;1.70;1.60;;;21.90;99.90;;;;;;6145693;23;20084;-68
2022/08/07 00:43:56;;;;;;;1.55;1.30;;;21.90;99.90;;;;;;6143333;23;20014;-69
2022/08/07 00:46:22;;;;;;;1.15;1.10;;;21.90;99.90;;;;;;6146623;23;20032;-68
2022/08/07 00:48:48;;;;;;;1.10;1.10;;;21.90;99.90;;;;;;6143513;23;20033;-68
2022/08/07 00:51:14;;;;;;;1.40;1.30;;;21.90;99.90;;;;;;6145216;23;20083;-68
2022/08/07 00:53:40;;;;;;;1.40;1.30;;;21.90;99.90;;;;;;6145181;23;20005;-68
2022/08/07 00:56:06;;;;;;;1.02;1.02;;;21.90;99.90;;;;;;6142900;23;20049;-68
2022/08/07 00:58:32;;;;;;;1.40;1.10;;;21.90;99.90;;;;;;6141942;23;20012;-68
2022/08/07 01:00:58;;;;;;;1.20;1.20;;;22.00;99.90;;;;;;6140679;23;20347;-68
2022/08/07 01:03:24;;;;;;;2.35;1.10;;;22.00;99.90;;;;;;6143773;23;20002;-68
2022/08/07 01:05:51;;;;;;;1.23;1.13;;;22.00;99.90;;;;;;6144334;23;20320;-69
2022/08/07 01:08:17;;;;;;;2.63;0.95;;;22.10;99.90;;;;;;6117307;23;20005;-68
2022/08/07 01:10:43;;;;;;;1.00;0.90;;;22.10;99.90;;;;;;6144796;23;20061;-68
2022/08/07 01:13:09;;;;;;;1.42;1.10;;;22.00;99.90;;;;;;6143975;23;20005;-67
2022/08/07 01:15:36;;;;;;;1.25;1.00;;;22.00;99.90;;;;;;6142756;23;20021;-67
2022/08/07 01:18:02;;;;;;;1.38;1.00;;;22.00;99.90;;;;;;6144668;23;20061;-68
2022/08/07 01:20:33;;;;;;;1.23;1.13;;;22.00;99.90;;;;;;6145394;23;20009;-67
2022/08/07 01:23:00;;;;;;;1.00;1.00;;;22.00;99.90;;;;;;6144983;23;20005;-68
2022/08/07 01:25:27;;;;;;;1.02;0.80;;;21.90;99.90;;;;;;6144367;23;20013;-67
2022/08/07 01:27:54;;;;;;;0.85;0.85;;;21.90;99.90;;;;;;6144566;23;20435;-67
2022/08/07 01:30:20;;;;;;;1.10;1.10;;;21.80;99.90;;;;;;6145488;23;20629;-67
2022/08/07 01:32:46;;;;;;;1.02;0.90;;;21.80;99.90;;;;;;6143896;23;20464;-67
2022/08/07 01:35:12;;;;;;;0.98;0.98;;;21.80;99.90;;;;;;6144999;23;20017;-67
2022/08/07 01:37:37;;;;;;;1.15;1.00;;;21.80;99.90;;;;;;6144766;23;20072;-68
2022/08/07 01:40:05;;;;;;;1.95;1.13;;;21.90;99.90;;;;;;6144844;23;20001;-67
2022/08/07 01:42:31;;;;;;;1.02;1.00;;;21.90;99.90;;;;;;6146585;23;20001;-67
2022/08/07 01:44:57;;;;;;;1.80;1.33;;;21.90;99.90;;;;;;6143554;23;20013;-67
2022/08/07 01:47:23;;;;;;;2.17;1.20;;;21.80;99.90;;;;;;6144704;23;20010;-67
2022/08/07 01:49:49;;;;;;;1.08;1.08;;;21.80;99.90;;;;;;6145373;23;20458;-67
2022/08/07 01:52:15;;;;;;;0.95;0.73;;;21.80;99.90;;;;;;6142581;23;20010;-67
2022/08/07 01:54:42;;;;;;;1.05;1.00;;;21.80;99.90;;;;;;6146244;23;20017;-67
2022/08/07 01:57:26;;;;;;;1.48;1.20;;;21.80;99.90;;;;;;6144583;23;20049;-67
2022/08/07 02:00:08;;;;;;;1.42;0.90;;;21.70;99.90;;;;;;6145797;23;20010;-67
2022/08/07 02:02:54;;;;;;;1.13;1.02;;;21.70;99.90;;;;;;6143088;23;20023;-67
2022/08/07 02:05:26;;;;;;;1.00;1.00;;;21.70;99.90;;;;;;6142430;23;20013;-68
2022/08/07 02:07:55;;;;;;;2.42;1.15;;;21.70;99.90;;;;;;6142663;23;20715;-68
2022/08/07 02:10:24;;;;;;;1.10;0.95;;;21.70;99.90;;;;;;6119293;23;20001;-67
2022/08/07 02:12:50;;;;;;;0.70;0.70;;;21.70;99.90;;;;;;6141997;23;20004;-67
2022/08/07 02:15:21;;;;;;;0.93;0.93;;;21.70;99.90;;;;;;6144999;23;20034;-67
2022/08/07 02:17:47;;;;;;;2.22;0.80;;;21.70;99.90;;;;;;6141461;23;20012;-67
2022/08/07 02:20:14;;;;;;;2.38;1.10;;;21.70;99.90;;;;;;6141144;23;20048;-67
2022/08/07 02:22:41;;;;;;;0.98;0.98;;;21.70;99.90;;;;;;6144058;23;20081;-67
2022/08/07 02:25:09;;;;;;;1.63;0.80;;;21.70;99.90;;;;;;6142606;23;20009;-67
2022/08/07 02:27:36;;;;;;;0.80;0.80;;;21.60;99.90;;;;;;6142826;23;20427;-67
2022/08/07 02:30:04;;;;;;;0.90;0.90;;;21.50;99.90;;;;;;6141220;23;20002;-67
2022/08/07 02:32:30;;;;;;;0.73;0.70;;;21.50;99.90;;;;;;6141585;23;20008;-68
2022/08/07 02:34:57;;;;;;;1.63;1.20;;;21.50;99.90;;;;;;6140859;23;20001;-67
2022/08/07 02:37:24;;;;;;;2.53;1.00;;;21.50;99.90;;;;;;6140411;23;20343;-67
2022/08/07 02:39:52;;;;;;;2.58;1.10;;;21.50;99.90;;;;;;6142060;23;20487;-67
2022/08/07 02:42:18;;;;;;;2.40;0.98;;;21.50;99.90;;;;;;6142708;23;20072;-67
2022/08/07 02:44:49;;;;;;;1.25;1.20;;;21.50;99.90;;;;;;6144211;23;20024;-67
2022/08/07 02:47:17;;;;;;;2.85;1.10;;;21.50;99.90;;;;;;6143954;23;20044;-67
2022/08/07 02:49:43;;;;;;;0.82;0.80;;;21.50;99.90;;;;;;6143671;23;20061;-67
2022/08/07 02:52:13;;;;;;;2.42;0.90;;;21.50;99.90;;;;;;6144318;23;20073;-67
2022/08/07 02:54:40;;;;;;;0.85;0.80;;;21.40;99.90;;;;;;6144168;23;20116;-67
2022/08/07 02:57:10;;;;;;;2.90;0.88;;;21.40;99.90;;;;;;6117966;23;20022;-68
2022/08/07 02:59:36;;;;;;;1.17;0.85;;;21.40;99.90;;;;;;6117670;23;20001;-68
2022/08/07 03:02:02;;;;;;;0.77;0.77;;;21.50;99.90;;;;;;6143668;23;20224;-68
2022/08/07 03:04:29;;;;;;;2.83;0.90;;;21.50;99.90;;;;;;6139536;23;20589;-68
2022/08/07 03:06:55;;;;;;;5.57;0.95;;;21.50;99.90;;;;;;6145444;23;20009;-68
2022/08/07 03:09:22;;;;;;;3.95;1.10;;;21.50;99.90;;;;;;6143464;23;20012;-68
2022/08/07 03:11:49;;;;;;;3.15;0.73;;;21.40;99.90;;;;;;6145070;23;20012;-67
2022/08/07 03:14:15;;;;;;;4.63;0.80;;;21.50;99.90;;;;;;6141518;23;20013;-67
2022/08/07 03:16:41;;;;;;;21.90;2.00;;;21.40;99.90;;;;;;6118138;23;20005;-67
2022/08/07 03:19:08;;;;;;;25.02;1.65;;;21.50;99.90;;;;;;6145083;23;20001;-67
2022/08/07 03:21:34;;;;;;;0.95;0.90;;;21.50;99.90;;;;;;6141360;23;20021;-67
2022/08/07 03:24:00;;;;;;;0.95;0.93;;;21.50;99.90;;;;;;6144852;23;20002;-68
2022/08/07 03:26:31;;;;;;;0.70;0.70;;;21.50;99.90;;;;;;6143934;23;20024;-67
2022/08/07 03:29:00;;;;;;;0.88;0.88;;;21.40;99.90;;;;;;6146203;23;20002;-68
2022/08/07 03:31:26;;;;;;;0.98;0.90;;;21.40;99.90;;;;;;6118559;23;20014;-67
2022/08/07 03:34:01;;;;;;;1.45;0.60;;;21.50;99.90;;;;;;6145766;23;20009;-67
2022/08/07 03:36:28;;;;;;;0.70;0.70;;;21.40;99.90;;;;;;6117491;23;20763;-67
2022/08/07 03:38:58;;;;;;;0.75;0.70;;;21.40;99.90;;;;;;6147141;23;20001;-67
2022/08/07 03:41:24;;;;;;;0.75;0.70;;;21.30;99.90;;;;;;6145363;23;19997;-67
2022/08/07 03:43:50;;;;;;;0.70;0.70;;;21.30;99.90;;;;;;6145281;23;20337;-67
2022/08/07 03:46:16;;;;;;;1.10;0.57;;;21.20;99.90;;;;;;6143634;23;20013;-67
2022/08/07 03:48:42;;;;;;;2.15;0.50;;;21.30;99.90;;;;;;6146297;23;20158;-67
2022/08/07 03:51:09;;;;;;;0.63;0.60;;;21.30;99.90;;;;;;6142554;23;20008;-67
2022/08/07 03:53:37;;;;;;;0.57;0.57;;;21.30;99.90;;;;;;6146495;23;20045;-67
2022/08/07 03:56:03;;;;;;;0.50;0.47;;;21.40;99.90;;;;;;6144075;23;20024;-67
2022/08/07 03:58:29;;;;;;;2.45;0.40;;;21.30;99.90;;;;;;6145962;23;20464;-67
2022/08/07 04:00:57;;;;;;;1.05;0.50;;;21.30;99.90;;;;;;6143888;23;20465;-67
2022/08/07 04:03:23;;;;;;;0.50;0.50;;;21.30;99.90;;;;;;6145239;23;20017;-67
2022/08/07 04:05:49;;;;;;;0.73;0.50;;;21.30;99.80;;;;;;6142756;23;20028;-67
2022/08/07 04:08:15;;;;;;;0.47;0.47;;;21.30;99.90;;;;;;6146910;23;20006;-68
2022/08/07 04:10:41;;;;;;;2.17;0.65;;;21.30;99.90;;;;;;6144977;23;20010;-67
2022/08/07 04:13:10;;;;;;;0.60;0.60;;;21.30;99.90;;;;;;6145531;23;20029;-68
2022/08/07 04:15:36;;;;;;;0.25;0.25;;;21.30;99.90;;;;;;6142431;23;20554;-67
2022/08/07 04:18:02;;;;;;;0.60;0.30;;;21.30;99.90;;;;;;6144593;23;20060;-67
2022/08/07 04:20:28;;;;;;;0.52;0.45;;;21.30;99.80;;;;;;6146532;23;20012;-68
2022/08/07 04:22:55;;;;;;;0.73;0.50;;;21.40;99.60;;;;;;6141818;23;20100;-67
2022/08/07 04:25:22;;;;;;;0.52;0.50;;;21.40;99.30;;;;;;6142089;23;20020;-67
2022/08/07 04:27:48;;;;;;;0.50;0.50;;;21.40;99.50;;;;;;6145894;23;20013;-67
2022/08/07 04:30:14;;;;;;;2.72;0.68;;;21.40;99.90;;;;;;6143122;23;20002;-68
2022/08/07 04:32:40;;;;;;;0.50;0.50;;;21.30;99.90;;;;;;6145912;23;20032;-68
2022/08/07 04:35:08;;;;;;;2.92;0.50;;;21.40;99.90;;;;;;6144284;23;20098;-68
2022/08/07 04:37:34;;;;;;;0.70;0.60;;;21.30;99.90;;;;;;6146081;23;20005;-68
2022/08/07 04:40:03;;;;;;;0.70;0.70;;;21.20;99.90;;;;;;6143888;23;20033;-67
2022/08/07 04:42:31;;;;;;;1.33;0.73;;;21.20;99.90;;;;;;6146316;23;19997;-67
2022/08/07 04:45:01;;;;;;;6.05;0.70;;;21.20;99.90;;;;;;6143480;23;20017;-67
2022/08/07 04:47:54;;;;;;;1.65;0.70;;;21.20;99.90;;;;;;6145524;23;20050;-68
2022/08/07 04:50:36;;;;;;;1.67;0.75;;;21.20;99.90;;;;;;6143834;23;20748;-67
2022/08/07 04:53:31;;;;;;;0.98;0.45;;;21.20;99.90;;;;;;6144739;23;20021;-68
2022/08/07 04:56:03;;;;;;;0.50;0.50;;;21.20;99.90;;;;;;6124830;23;20026;-67
2022/08/07 04:58:55;;;;;;;1.25;0.30;;;21.20;99.90;;;;;;6145846;23;20005;-67
2022/08/07 05:01:37;;;;;;;0.52;0.50;;;21.20;99.80;;;;;;6146838;23;20001;-67
2022/08/07 05:04:10;;;;;;;1.85;0.70;;;21.10;99.40;;;;;;6145809;23;20007;-67
2022/08/07 05:07:00;;;;;;;2.85;0.40;;;21.10;99.50;;;;;;6144877;23;20038;-67
2022/08/07 05:09:39;;;;;;;0.50;0.50;;;21.10;99.40;;;;;;6144257;23;20002;-67
2022/08/07 05:12:09;;;;;;;0.95;0.63;;;21.10;99.00;;;;;;6145507;23;20009;-68
2022/08/07 05:14:43;;;;;;;1.10;0.50;;;21.20;99.10;;;;;;6144506;23;20412;-68
2022/08/07 05:17:12;;;;;;;3.47;0.38;;;21.20;99.10;;;;;;6142161;23;20006;-68
2022/08/07 05:19:45;;;;;;;0.47;0.40;;;21.20;98.70;;;;;;6146571;23;20457;-73
2022/08/07 05:22:11;;;;;;;0.60;0.60;;;21.20;98.10;;;;;;6144709;23;20931;-73
2022/08/07 05:24:38;;;;;;;2.15;0.40;;;21.20;98.00;;;;;;6142112;23;20073;-73
2022/08/07 05:27:07;;;;;;;0.65;0.50;;;21.30;98.00;;;;;;6118771;23;20088;-72
2022/08/07 05:29:36;;;;;;;1.45;0.45;;;21.30;97.80;;;;;;6146132;23;20028;-73
2022/08/07 05:32:02;;;;;;;1.77;0.40;;;21.30;98.00;;;;;;6144315;23;20006;-73
2022/08/07 05:34:29;;;;;;;1.15;0.30;;;21.30;97.00;;;;;;6144462;23;20005;-73
2022/08/07 05:36:56;;;;;;;0.30;0.30;;;21.20;96.80;;;;;;6145160;23;20005;-73
2022/08/07 05:39:22;;;;;;;0.98;0.40;;;21.20;96.90;;;;;;6146418;23;20502;-73
2022/08/07 05:41:50;;;;;;;0.50;0.40;;;21.20;96.90;;;;;;6143378;23;19997;-73
2022/08/07 05:44:18;;;;;;;0.40;0.40;;;21.20;96.80;;;;;;6143621;23;20085;-73
2022/08/07 05:46:47;;;;;;;8.60;0.65;;;21.30;96.40;;;;;;6145254;23;20017;-73
2022/08/07 05:49:13;;;;;;;2.60;0.45;;;21.20;96.60;;;;;;6144506;23;20007;-74
2022/08/07 05:51:41;;;;;;;1.55;0.40;;;21.20;96.70;;;;;;6144633;23;20010;-74
2022/08/07 05:54:06;;;;;;;0.88;0.40;;;21.20;96.40;;;;;;6145101;23;20009;-73
2022/08/07 05:56:34;;;;;;;1.08;0.65;;;21.20;96.70;;;;;;6144936;23;20649;-74
2022/08/07 05:59:02;;;;;;;0.77;0.60;;;21.20;96.20;;;;;;6144319;23;20036;-73
2022/08/07 06:01:28;;;;;;;2.72;0.65;;;21.10;96.20;;;;;;6145079;23;20392;-73
2022/08/07 06:03:56;;;;;;;0.93;0.30;;;21.20;96.00;;;;;;6144034;23;19997;-73
2022/08/07 06:06:23;;;;;;;0.85;0.30;;;21.20;96.10;;;;;;6144842;23;20016;-73
2022/08/07 06:08:51;;;;;;;1.27;0.65;;;21.30;95.20;;;;;;6145837;23;20006;-73
2022/08/07 06:11:17;;;;;;;1.15;0.47;;;21.20;95.10;;;;;;6145593;23;20693;-73
2022/08/07 06:13:43;;;;;;;1.10;0.77;;;21.30;95.30;;;;;;6142927;23;20020;-73
2022/08/07 06:16:09;;;;;;;3.78;0.50;;;21.30;95.80;;;;;;6143505;23;20037;-73
2022/08/07 06:18:36;;;;;;;0.30;0.22;;;21.30;95.30;;;;;;6143839;23;20005;-72
2022/08/07 06:21:03;;;;;;;6.70;1.10;;;21.30;95.50;;;;;;6145837;23;20486;-73
2022/08/07 06:23:30;;;;;;;2.60;0.63;;;21.30;95.10;;;;;;6138703;23;20799;-73
2022/08/07 06:25:57;;;;;;;4.28;0.60;;;21.40;95.00;;;;;;6145256;23;20467;-67
2022/08/07 06:28:23;;;;;;;4.72;0.45;;;21.40;94.70;;;;;;6143556;23;20057;-73
2022/08/07 06:30:49;;;;;;;3.10;0.57;;;21.40;94.90;;;;;;6143646;23;20439;-73
2022/08/07 06:33:15;;;;;;;17.92;1.08;;;21.50;95.10;;;;;;6142551;23;20001;-73
2022/08/07 06:35:41;;;;;;;0.85;0.43;;;21.60;95.20;;;;;;6143139;23;20088;-74
2022/08/07 06:38:06;;;;;;;2.08;0.73;;;21.60;94.60;;;;;;6142464;23;20641;-73
2022/08/07 06:40:50;;;;;;;1.10;0.30;;;21.50;94.70;;;;;;6138597;23;20009;-68
2022/08/07 06:43:18;;;;;;;2.85;1.30;;;21.40;94.60;;;;;;6143330;23;20029;-68
2022/08/07 06:45:44;;;;;;;3.17;0.70;;;21.40;94.20;;;;;;6144368;23;20073;-67
2022/08/07 06:48:09;;;;;;;15.60;2.17;;;21.40;94.50;;;;;;6144859;23;20014;-69
2022/08/07 06:50:38;;;;;;;2.10;0.63;;;21.50;94.20;;;;;;6141712;23;20013;-67
2022/08/07 06:53:06;;;;;;;2.15;0.50;;;21.60;94.10;;;;;;6143085;23;20001;-67
2022/08/07 06:55:33;;;;;;;1.85;0.50;;;21.70;94.40;;;;;;6144485;23;20025;-68
2022/08/07 06:58:03;;;;;;;2.53;0.60;;;21.80;94.20;;;;;;6142659;23;20016;-68
2022/08/07 07:00:34;;;;;;;3.90;0.80;;;21.80;94.00;;;;;;6143572;23;20002;-68
2022/08/07 07:03:01;;;;;;;2.60;0.40;;;21.90;93.70;;;;;;6142331;23;20088;-68
2022/08/07 07:05:27;;;;;;;2.50;0.50;;;22.10;93.50;;;;;;6119768;23;20092;-69
2022/08/07 07:07:53;;;;;;;4.35;0.55;;;22.20;93.20;;;;;;6117581;23;20034;-69
2022/08/07 07:10:30;;;;;;;0.70;0.50;;;22.20;93.40;;;;;;6145239;23;20435;-70
2022/08/07 07:13:02;;;;;;;0.60;0.30;;;22.30;92.90;;;;;;6143622;23;20053;-69
2022/08/07 07:15:38;;;;;;;1.05;0.50;;;22.30;92.70;;;;;;6146386;23;20009;-69
2022/08/07 07:18:28;;;;;;;2.28;0.60;;;22.30;92.40;;;;;;6145207;23;20087;-69
2022/08/07 07:21:18;;;;;;;4.30;0.60;;;22.30;92.10;;;;;;6142281;23;20005;-69
2022/08/07 07:23:44;;;;;;;7.40;0.68;;;22.30;92.50;;;;;;6140084;23;20020;-69
2022/08/07 07:26:14;;;;;;;1.02;0.40;;;22.30;92.40;;;;;;6141231;23;20146;-69
2022/08/07 07:28:45;;;;;;;1.05;0.50;;;22.40;92.30;;;;;;6145845;23;19998;-70
2022/08/07 07:31:38;;;;;;;0.90;0.40;;;22.60;92.20;;;;;;6140329;23;20032;-69
2022/08/07 07:34:05;;;;;;;;;;;22.60;91.50;;;;;;6146696;23;20491;-69
2022/08/07 07:36:33;;;;;;;6.45;1.33;;;22.60;93.10;;;;;;6144501;23;19983;-70
2022/08/07 07:39:02;;;;;;;5.20;1.08;;;22.60;92.40;;;;;;6144472;23;20012;-70
2022/08/07 07:41:30;;;;;;;0.90;0.40;;;22.80;91.60;;;;;;6139650;23;20053;-69
2022/08/07 07:43:57;;;;;;;0.85;0.55;;;22.70;91.50;;;;;;6139617;23;20057;-68
2022/08/07 07:46:25;;;;;;;0.52;0.40;;;22.70;91.70;;;;;;6143173;23;20667;-68
2022/08/07 07:48:53;;;;;;;1.33;0.60;;;22.80;91.30;;;;;;6144471;23;19997;-68
2022/08/07 07:51:21;;;;;;;1.15;0.55;;;22.80;91.20;;;;;;6143681;23;20053;-68
2022/08/07 07:53:49;;;;;;;1.15;0.60;;;22.90;91.50;;;;;;6142419;23;20052;-68
2022/08/07 07:56:16;;;;;;;1.83;0.40;;;23.00;92.00;;;;;;6144011;23;20040;-68
2022/08/07 07:58:43;;;;;;;2.83;0.70;;;23.10;91.20;;;;;;6137923;23;20005;-68
2022/08/07 08:01:10;;;;;;;0.40;0.40;;;23.30;91.00;;;;;;6138969;23;20250;-67
2022/08/07 08:03:39;;;;;;;5.35;0.63;;;23.30;90.70;;;;;;6136154;23;20562;-68
2022/08/07 08:06:06;;;;;;;0.57;0.40;;;23.40;89.00;;;;;;6133651;23;20839;-68
2022/08/07 08:08:34;;;;;;;1.00;0.50;;;23.40;89.60;;;;;;6137901;23;20042;-68
2022/08/07 08:11:00;;;;;;;3.03;0.60;;;23.40;90.20;;;;;;6109886;23;20009;-68
2022/08/07 08:13:28;;;;;;;4.40;0.85;;;23.50;91.20;;;;;;6139081;23;20001;-70
2022/08/07 08:15:55;;;;;;;2.78;0.50;;;23.70;90.90;;;;;;6142492;23;19998;-69
2022/08/07 08:18:23;;;;;;;4.55;0.63;;;23.80;89.60;;;;;;6144488;23;20088;-69
2022/08/07 08:20:49;;;;;;;0.47;0.47;;;23.90;88.90;;;;;;6144478;23;20050;-68
2022/08/07 08:28:52;;;;;;;2.60;0.70;;;24.10;89.70;;;;;;6140252;23;20016;-69
2022/08/07 08:31:25;;;;;;;3.22;0.50;;;24.20;87.60;;;;;;6136196;23;20037;-69
2022/08/07 08:33:53;;;;;;;2.70;0.68;;;24.40;86.80;;;;;;6143442;23;20001;-69
2022/08/07 08:36:21;;;;;;;3.35;0.60;;;24.50;87.50;;;;;;6144500;23;20008;-69
2022/08/07 08:38:47;;;;;;;1.33;0.55;;;24.80;87.80;;;;;;6138463;23;20116;-69
2022/08/07 08:41:19;;;;;;;2.10;0.50;;;24.90;85.30;;;;;;6135435;23;20072;-69
2022/08/07 08:44:13;;;;;;;8.55;1.65;;;25.10;84.60;;;;;;6140079;23;20469;-69
2022/08/07 08:47:06;;;;;;;0.60;0.50;;;25.10;82.90;;;;;;6141674;23;20097;-66
2022/08/07 08:49:40;;;;;;;2.08;0.50;;;25.30;82.10;;;;;;6144226;23;20656;-67
2022/08/07 08:52:31;;;;;;;1.88;0.40;;;25.40;83.30;;;;;;6139102;23;20006;-67
2022/08/07 08:54:59;;;;;;;1.45;0.73;;;25.40;80.00;;;;;;6144382;23;20013;-68
2022/08/07 08:57:38;;;;;;;2.53;0.60;;;25.40;81.00;;;;;;6143709;23;20032;-67
2022/08/07 09:00:07;;;;;;;1.85;0.85;;;25.60;81.90;;;;;;6142924;23;20006;-71
2022/08/07 09:02:38;;;;;;;0.52;0.47;;;25.60;79.30;;;;;;6143422;23;20029;-69
2022/08/07 09:05:36;;;;;;;1.73;0.60;;;25.60;76.60;;;;;;6142556;23;20165;-70
2022/08/07 09:08:19;;;;;;;0.60;0.60;;;25.30;80.60;;;;;;6144055;23;20072;-70
2022/08/07 09:11:07;;;;;;;1.77;0.60;;;25.30;78.90;;;;;;6118698;23;20013;-69
2022/08/07 09:13:38;;;;;;;2.05;0.70;;;25.40;80.80;;;;;;6142586;23;20005;-74
2022/08/07 09:16:13;;;;;;;4.35;0.55;;;25.60;79.60;;;;;;6142971;23;20064;-75
2022/08/07 09:18:56;;;;;;;2.17;0.60;;;25.60;79.60;;;;;;6142492;23;20036;-73
2022/08/07 09:21:40;;;;;;;1.02;0.70;;;25.80;80.80;;;;;;6140404;23;20009;-74
2022/08/07 09:24:24;;;;;;;0.40;0.40;;;25.90;78.50;;;;;;6142652;23;20036;-74
2022/08/07 09:27:08;;;;;;;1.10;0.77;;;26.00;77.60;;;;;;6138255;23;20051;-74
2022/08/07 09:29:49;;;;;;;1.10;0.50;;;26.00;75.70;;;;;;6117040;23;20017;-73
2022/08/07 09:32:38;;;;;;;1.45;0.50;;;26.00;77.60;;;;;;6142675;23;20017;-70
2022/08/07 09:35:16;;;;;;;2.65;0.60;;;26.10;76.30;;;;;;6144092;23;20215;-69
2022/08/07 09:37:59;;;;;;;2.65;0.60;;;26.30;77.70;;;;;;6143370;23;20041;-69
2022/08/07 09:40:29;;;;;;;0.63;0.63;;;26.40;78.10;;;;;;6144047;23;20017;-68
2022/08/07 09:43:12;;;;;;;1.58;0.60;;;26.60;76.70;;;;;;6141702;23;21157;-69
2022/08/07 09:45:56;;;;;;;1.02;0.50;;;26.60;74.20;;;;;;6141818;23;20020;-68
2022/08/07 09:48:56;;;;;;;2.55;0.70;;;26.70;77.20;;;;;;6137544;23;20345;-76
2022/08/07 09:51:43;;;;;;;1.35;0.70;;;26.70;73.90;;;;;;6140085;23;20009;-75
2022/08/07 09:54:18;;;;;;;1.70;0.70;;;26.70;76.10;;;;;;6142885;23;20076;-74
2022/08/07 09:57:16;;;;;;;0.60;0.60;;;26.70;76.60;;;;;;6143312;23;20092;-76
2022/08/07 10:00:08;;;;;;;7.13;0.88;;;26.90;75.10;;;;;;6142516;23;20016;-78
2022/08/07 10:03:11;;;;;;;0.90;0.60;;;27.00;75.60;;;;;;6139801;23;20466;-75
2022/08/07 10:06:16;;;;;;;1.95;0.75;;;27.10;74.50;;;;;;6142121;23;20451;-75
2022/08/07 10:09:12;;;;;;;0.57;0.45;;;27.20;73.60;;;;;;6123554;23;20068;-75
2022/08/07 10:11:58;;;;;;;1.95;0.60;;;27.20;75.90;;;;;;6113494;23;20462;-76
2022/08/07 10:14:43;;;;;;;1.65;0.77;;;27.40;74.20;;;;;;6145631;23;20008;-75
2022/08/07 10:17:34;;;;;;;0.95;0.77;;;27.40;74.20;;;;;;6144563;23;20005;-75
2022/08/07 10:20:20;;;;;;;0.95;0.60;;;27.40;72.50;;;;;;6142938;23;20080;-75
2022/08/07 10:23:22;;;;;;;1.23;0.70;;;27.30;73.30;;;;;;6144493;23;20001;-75
2022/08/07 10:26:11;;;;;;;2.15;0.77;;;27.20;74.40;;;;;;6143588;23;20017;-76
2022/08/07 10:28:59;;;;;;;0.63;0.57;;;27.20;75.80;;;;;;6140966;23;20013;-74
2022/08/07 10:32:08;;;;;;;4.15;0.75;;;27.30;74.70;;;;;;6141641;23;20686;-77
2022/08/07 10:34:56;;;;;;;1.48;1.00;;;27.30;72.50;;;;;;6139715;23;20140;-76
2022/08/07 10:37:52;;;;;;;2.03;0.82;;;27.10;73.00;;;;;;6143201;23;20502;-78
2022/08/07 10:40:32;;;;;;;1.65;0.60;;;27.00;74.10;;;;;;6143272;23;20088;-77
2022/08/07 10:43:14;;;;;;;0.82;0.52;;;27.00;75.30;;;;;;6141186;23;20006;-78
2022/08/07 10:45:46;;;;;;;1.85;0.75;;;27.10;75.80;;;;;;6145514;23;20052;-78
2022/08/07 10:48:21;;;;;;;0.65;0.60;;;27.20;77.00;;;;;;6142326;23;20002;-76
2022/08/07 10:51:13;;;;;;;1.38;0.88;;;27.40;74.60;;;;;;6142638;23;20402;-78
2022/08/07 10:54:02;;;;;;;;;;;27.60;75.70;;;;;;6141256;23;20072;-76
2022/08/07 10:57:02;;;;;;;3.40;0.60;;;27.70;75.90;;;;;;6072532;23;19916;-74
2022/08/07 10:59:45;;;;;;;1.02;0.98;;;27.80;75.30;;;;;;6143633;23;20006;-74
2022/08/07 11:02:30;;;;;;;0.85;0.77;;;27.90;73.80;;;;;;6143109;23;20033;-74
2022/08/07 11:05:14;;;;;;;1.02;0.77;;;28.00;74.20;;;;;;6140164;23;20004;-74
2022/08/07 11:08:11;;;;;;;2.05;1.00;;;28.00;72.70;;;;;;6143707;23;20489;-75
2022/08/07 11:10:47;;;;;;;1.48;0.70;;;27.90;73.00;;;;;;6116411;23;20013;-74
2022/08/07 11:13:19;;;;;;;0.85;0.80;;;27.90;72.90;;;;;;6141255;23;20493;-74
2022/08/07 11:15:49;;;;;;;0.57;0.57;;;27.80;72.90;;;;;;6143154;23;20029;-74
2022/08/07 11:18:24;;;;;;;0.65;0.65;;;27.80;73.00;;;;;;6143068;23;20226;-75
2022/08/07 11:21:08;;;;;;;1.13;0.93;;;27.70;74.40;;;;;;6140740;23;20009;-74
2022/08/07 11:24:13;;;;;;;0.68;0.50;;;27.80;76.40;;;;;;6134807;23;20776;-75
2022/08/07 11:26:48;;;;;;;0.95;0.60;;;27.90;74.10;;;;;;6137953;23;20017;-74
2022/08/07 11:29:25;;;;;;;2.20;0.60;;;28.00;76.20;;;;;;6135380;23;20005;-74
2022/08/07 11:32:28;;;;;;;1.05;0.50;;;28.10;75.90;;;;;;6138524;23;20010;-74
2022/08/07 11:35:02;;;;;;;3.90;1.67;;;28.30;75.10;;;;;;6136582;23;20025;-74
2022/08/07 11:37:43;;;;;;;2.78;0.70;;;28.30;74.10;;;;;;6142145;23;20017;-75
2022/08/07 11:40:31;;;;;;;2.40;0.60;;;28.30;72.60;;;;;;6141884;23;20029;-74
2022/08/07 11:43:24;;;;;;;0.68;0.68;;;28.20;73.40;;;;;;6143186;23;20040;-76
2022/08/07 11:46:08;;;;;;;2.63;0.70;;;28.20;72.80;;;;;;6142601;23;20207;-68
2022/08/07 11:48:53;;;;;;;1.85;0.70;;;28.20;71.40;;;;;;6142439;23;20034;-68
2022/08/07 11:51:19;;;;;;;2.90;0.90;;;28.00;73.50;;;;;;6140214;23;20013;-68
2022/08/07 11:54:21;;;;;;;0.80;0.70;;;28.00;75.80;;;;;;6142189;23;20010;-68
2022/08/07 11:57:27;;;;;;;2.45;0.80;;;28.00;73.50;;;;;;6139926;23;20100;-67
2022/08/07 12:00:16;;;;;;;4.50;0.75;;;27.90;73.20;;;;;;6139991;23;20033;-69
2022/08/07 12:03:13;;;;;;;1.58;0.90;;;28.00;76.70;;;;;;6139932;23;20013;-69
2022/08/07 12:05:57;;;;;;;0.75;0.73;;;28.20;74.10;;;;;;6140717;23;20018;-69
2022/08/07 12:08:40;;;;;;;2.28;0.70;;;28.20;72.60;;;;;;6139207;23;20008;-69
2022/08/07 12:11:14;;;;;;;2.85;0.90;;;28.20;72.50;;;;;;6113735;23;20407;-69
2022/08/07 12:13:49;;;;;;;1.20;0.73;;;28.30;74.30;;;;;;6141542;23;20009;-69
2022/08/07 12:16:20;;;;;;;1.08;0.77;;;28.30;72.00;;;;;;6138044;23;20009;-69
2022/08/07 12:18:49;;;;;;;1.13;0.90;;;28.30;71.60;;;;;;6138669;23;20001;-69
2022/08/07 12:21:46;;;;;;;1.00;0.70;;;28.30;73.70;;;;;;6113676;23;20021;-69
2022/08/07 12:24:26;;;;;;;3.90;1.15;;;28.20;71.40;;;;;;6136683;23;20119;-77
2022/08/07 12:27:03;;;;;;;1.55;0.90;;;28.10;72.00;;;;;;6138255;23;20022;-74
2022/08/07 12:29:59;;;;;;;2.10;0.90;;;28.10;74.60;;;;;;6140847;23;20331;-75
2022/08/07 12:32:49;;;;;;;0.80;0.80;;;28.00;73.40;;;;;;6136078;23;20032;-74
2022/08/07 12:35:16;;;;;;;1.98;1.83;;;27.90;73.70;;;;;;6137020;23;20013;-75
2022/08/07 12:37:45;;;;;;;1.77;1.00;;;28.00;76.80;;;;;;6141295;23;19998;-76
2022/08/07 12:40:15;;;;;;;2.42;0.90;;;27.90;78.70;;;;;;6142284;23;20005;-78
2022/08/07 12:42:41;;;;;;;1.40;1.02;;;27.90;74.70;;;;;;6141964;23;20514;-76
2022/08/07 12:45:14;;;;;;;2.05;0.90;;;27.90;75.10;;;;;;6117181;23;20025;-76
2022/08/07 12:48:01;;;;;;;1.55;1.00;;;27.80;73.50;;;;;;6144874;23;20030;-76
2022/08/07 12:50:37;;;;;;;1.48;0.70;;;27.80;73.80;;;;;;6142570;23;20028;-76
2022/08/07 12:53:06;;;;;;;1.90;1.00;;;27.90;76.30;;;;;;6117664;23;20694;-77
2022/08/07 12:55:39;;;;;;;1.83;0.90;;;27.90;75.90;;;;;;6141881;23;20017;-75
2022/08/07 12:58:08;;;;;;;0.85;0.85;;;27.90;77.90;;;;;;6117391;23;20016;-76
2022/08/07 13:01:13;;;;;;;0.95;0.77;;;27.90;76.90;;;;;;6143823;23;20005;-76
2022/08/07 13:03:47;;;;;;;1.05;0.80;;;27.90;76.80;;;;;;6143320;23;20105;-77
2022/08/07 13:06:26;;;;;;;3.63;1.13;;;27.90;75.80;;;;;;6116560;23;20024;-73
2022/08/07 13:09:06;;;;;;;1.27;1.00;;;28.00;74.80;;;;;;6143227;23;20002;-74
2022/08/07 13:11:57;;;;;;;2.92;1.27;;;28.10;75.10;;;;;;6145436;23;20009;-75
2022/08/07 13:14:36;;;;;;;1.57;1.27;;;28.10;73.90;;;;;;6116108;23;20025;-75
2022/08/07 13:17:14;;;;;;;0.90;0.90;;;28.20;74.50;;;;;;6144766;23;20236;-76
2022/08/07 13:20:01;;;;;;;0.77;0.77;;;28.40;75.40;;;;;;6117471;23;20092;-77
2022/08/07 13:22:58;;;;;;;0.93;0.88;;;28.50;72.20;;;;;;6143878;23;20006;-77
2022/08/07 13:25:49;;;;;;;1.27;0.98;;;28.60;72.80;;;;;;6144354;23;20112;-75